Time;durP1;ratioP1;P1;durP2;ratioP2;P2;SDS_P1;SDS_P2;PMS_P1;PMS_P2;Temp;Humidity;BMP_temperature;BMP_pressure;BME280_temperature;BME280_humidity;BME280_pressure;Samples;Min_cycle;Max_cycle;Signal;HPM_P1;HPM_P2
2022/06/17 00:00:54;;;;;;;3.40;2.20;;;;;;;12.53;69.84;101684.98;107819;1281;63643;-86
2022/06/17 00:03:23;;;;;;;3.90;2.20;;;;;;;12.48;70.34;101693.14;107965;1279;60274;-87
2022/06/17 00:05:51;;;;;;;4.70;1.90;;;;;;;12.43;70.59;101686.51;107736;1279;74491;-85
2022/06/17 00:08:26;;;;;;;4.20;2.40;;;;;;;12.37;70.93;101687.67;107837;1279;71472;-87
2022/06/17 00:10:54;;;;;;;4.00;1.80;;;;;;;12.33;71.04;101686.92;108017;1279;72970;-87
2022/06/17 00:13:22;;;;;;;3.40;2.10;;;;;;;12.28;71.59;101682.31;107928;1280;63433;-87
2022/06/17 00:15:49;;;;;;;4.00;2.00;;;;;;;12.21;71.64;101670.69;107931;1281;60373;-87
2022/06/17 00:18:17;;;;;;;3.20;1.70;;;;;;;12.16;71.89;101661.83;107835;1279;74630;-87
2022/06/17 00:20:46;;;;;;;5.00;2.40;;;;;;;12.11;71.95;101657.39;107746;1279;72728;-87
2022/06/17 00:23:19;;;;;;;3.90;2.00;;;;;;;12.06;72.22;101663.30;107524;1279;73262;-87
2022/06/17 00:25:47;;;;;;;3.90;2.20;;;;;;;12.02;72.27;101669.77;107752;1279;63613;-86
2022/06/17 00:28:19;;;;;;;3.90;2.40;;;;;;;11.97;72.34;101667.75;107558;1280;60651;-86
2022/06/17 00:30:47;;;;;;;3.90;1.80;;;;;;;11.93;72.40;101677.27;107565;1281;76038;-87
2022/06/17 00:33:15;;;;;;;3.10;2.10;;;;;;;11.88;72.68;101677.91;107617;1281;71212;-87
2022/06/17 00:35:49;;;;;;;4.90;2.40;;;;;;;11.86;73.72;101673.68;107547;1279;73471;-87
2022/06/17 00:38:20;;;;;;;2.30;1.80;;;;;;;11.83;73.89;101671.67;107422;1280;63090;-87
2022/06/17 00:40:47;;;;;;;4.50;1.90;;;;;;;11.79;73.92;101676.58;107487;1279;61385;-87
2022/06/17 00:43:34;;;;;;;3.10;1.90;;;;;;;11.75;74.40;101679.12;107761;1279;75927;-87
2022/06/17 00:46:36;;;;;;;4.70;2.20;;;;;;;11.68;74.49;101683.30;107802;1280;71802;-87
2022/06/17 00:49:02;;;;;;;2.90;2.00;;;;;;;11.62;74.63;101687.69;107596;1280;71846;-88
2022/06/17 00:51:38;;;;;;;4.80;2.50;;;;;;;11.56;74.82;101690.43;107672;1279;63451;-87
2022/06/17 00:54:21;;;;;;;4.80;2.10;;;;;;;11.49;75.17;101684.22;107902;1279;61844;-87
2022/06/17 00:56:48;;;;;;;5.10;2.30;;;;;;;11.42;75.47;101688.48;107268;1279;75018;-87
2022/06/17 00:59:15;;;;;;;9.80;3.30;;;;;;;11.36;75.62;101701.86;107531;1279;72698;-87
2022/06/17 01:01:50;;;;;;;4.70;2.30;;;;;;;11.29;76.13;101693.83;107633;1279;72968;-87
2022/06/17 01:04:21;;;;;;;8.90;2.60;;;;;;;11.22;76.17;101694.33;107672;1281;63104;-87
2022/06/17 01:06:55;;;;;;;6.20;2.60;;;;;;;11.17;76.79;101690.47;107590;1279;60091;-86
2022/06/17 01:12:17;;;;;;;4.80;2.50;;;;;;;11.08;77.66;101685.39;107575;1279;70603;-87
2022/06/17 01:14:45;;;;;;;5.70;2.50;;;;;;;11.05;77.97;101683.73;107618;1280;74340;-87
2022/06/17 01:17:14;;;;;;;4.60;2.70;;;;;;;11.01;78.04;101687.02;107570;1281;61478;-87
2022/06/17 01:19:50;;;;;;;4.40;2.60;;;;;;;10.99;78.12;101687.25;107557;1281;61741;-87
2022/06/17 01:22:26;;;;;;;3.80;2.90;;;;;;;10.96;78.31;101689.31;107648;1279;74964;-86
2022/06/17 01:25:36;;;;;;;3.80;2.10;;;;;;;10.94;78.44;101690.81;107778;1279;71378;-87
2022/06/17 01:28:12;;;;;;;4.50;2.10;;;;;;;10.90;78.48;101694.06;107256;1282;74010;-87
2022/06/17 01:30:43;;;;;;;3.20;2.20;;;;;;;10.86;78.57;101693.90;107359;1281;63992;-87
2022/06/17 01:33:38;;;;;;;4.10;2.20;;;;;;;10.83;78.83;101692.96;107752;1279;60464;-86
2022/06/17 01:36:20;;;;;;;3.60;2.50;;;;;;;10.78;78.61;101686.33;107699;1279;76192;-87
2022/06/17 01:38:50;;;;;;;4.40;2.30;;;;;;;10.75;79.00;101685.11;107718;1279;72574;-87
2022/06/17 01:41:21;;;;;;;3.50;1.90;;;;;;;10.72;79.10;101688.23;107585;1279;72913;-87
2022/06/17 01:43:54;;;;;;;3.00;2.10;;;;;;;10.69;79.18;101695.36;107766;1279;62331;-88
2022/06/17 01:46:34;;;;;;;2.80;2.20;;;;;;;10.66;79.16;101696.73;108470;1280;60643;-87
2022/06/17 01:49:33;;;;;;;7.80;2.30;;;;;;;10.64;80.00;101706.55;108128;1279;74665;-87
2022/06/17 01:52:12;;;;;;;2.70;1.50;;;;;;;10.61;80.04;101721.46;107925;1279;71462;-87
2022/06/17 01:54:52;;;;;;;12.40;2.70;;;;;;;10.58;80.92;101723.69;108117;1279;73097;-87
2022/06/17 01:57:27;;;;;;;2.70;2.30;;;;;;;10.55;80.83;101727.38;108187;1279;61449;-87
2022/06/17 01:59:59;;;;;;;3.40;2.80;;;;;;;10.50;80.77;101731.52;107942;1281;61944;-88
2022/06/17 02:02:30;;;;;;;4.60;2.80;;;;;;;10.46;80.97;101735.32;108144;1280;74947;-88
2022/06/17 02:05:04;;;;;;;5.90;2.90;;;;;;;10.41;81.17;101735.93;108132;1279;71474;-88
2022/06/17 02:07:37;;;;;;;3.40;2.10;;;;;;;10.38;81.06;101740.86;108024;1279;72777;-87
2022/06/17 02:10:05;;;;;;;6.40;2.10;;;;;;;10.35;81.43;101745.95;107889;1281;62532;-87
2022/06/17 02:12:34;;;;;;;4.10;2.70;;;;;;;10.32;81.07;101746.23;108092;1279;60865;-87
2022/06/17 02:15:01;;;;;;;3.70;2.20;;;;;;;10.28;81.08;101744.13;108215;1279;75005;-87
2022/06/17 02:17:32;;;;;;;5.00;2.40;;;;;;;10.25;81.00;101742.30;108197;1279;71260;-87
2022/06/17 02:19:59;;;;;;;3.70;2.50;;;;;;;10.21;81.78;101744.02;108118;1281;73668;-87
2022/06/17 02:22:30;;;;;;;5.70;2.30;;;;;;;10.20;82.12;101744.69;107628;1282;62404;-87
2022/06/17 02:25:04;;;;;;;5.00;2.60;;;;;;;10.17;81.90;101747.71;108152;1279;60572;-87
2022/06/17 02:27:33;;;;;;;4.20;2.20;;;;;;;10.16;82.15;101745.55;107881;1281;76059;-87
2022/06/17 02:30:02;;;;;;;5.50;2.40;;;;;;;10.15;82.17;101744.80;107741;1280;71550;-87
2022/06/17 02:32:30;;;;;;;4.40;2.40;;;;;;;10.13;82.24;101742.62;107818;1279;72065;-86
2022/06/17 02:35:11;;;;;;;6.90;2.30;;;;;;;10.12;82.32;101736.41;107681;1279;62333;-87
2022/06/17 02:37:38;;;;;;;6.10;2.50;;;;;;;10.10;82.47;101730.27;107413;1281;60042;-87
2022/06/17 02:40:14;;;;;;;4.00;2.90;;;;;;;10.10;82.68;101726.40;107637;1281;75051;-87
2022/06/17 02:42:42;;;;;;;4.00;2.80;;;;;;;10.09;82.75;101721.48;107738;1279;71516;-87
2022/06/17 02:45:20;;;;;;;5.30;2.80;;;;;;;10.09;82.69;101724.27;107698;1279;73406;-87
2022/06/17 02:47:47;;;;;;;3.40;2.60;;;;;;;10.08;82.55;101724.20;107702;1279;62218;-87
2022/06/17 02:50:18;;;;;;;4.10;2.40;;;;;;;10.09;83.14;101710.75;107294;1281;60678;-87
2022/06/17 02:52:45;;;;;;;5.50;3.20;;;;;;;10.09;83.04;101702.06;107580;1279;75919;-86
2022/06/17 02:55:34;;;;;;;3.60;2.90;;;;;;;10.10;83.16;101698.98;107397;1281;71521;-87
2022/06/17 02:58:36;;;;;;;4.90;2.60;;;;;;;10.09;82.87;101705.38;107554;1281;73703;-87
2022/06/17 03:01:23;;;;;;;5.70;2.90;;;;;;;10.08;82.72;101706.56;107315;1280;61982;-87
2022/06/17 03:03:51;;;;;;;6.40;3.20;;;;;;;10.06;82.67;101715.79;107735;1279;62201;-86
2022/06/17 03:06:32;;;;;;;4.40;2.70;;;;;;;10.05;83.13;101720.13;107399;1281;76169;-87
2022/06/17 03:09:13;;;;;;;5.20;2.80;;;;;;;10.06;83.07;101721.13;107377;1279;72473;-87
2022/06/17 03:11:41;;;;;;;4.00;2.80;;;;;;;10.06;83.51;101720.89;107497;1281;74582;-87
2022/06/17 03:14:09;;;;;;;4.30;2.60;;;;;;;10.07;83.62;101717.42;107615;1279;62263;-87
2022/06/17 03:16:36;;;;;;;4.90;2.90;;;;;;;10.09;83.66;101713.60;107509;1281;61807;-87
2022/06/17 03:19:03;;;;;;;6.00;3.30;;;;;;;10.10;83.51;101718.08;107677;1279;75028;-87
2022/06/17 03:21:30;;;;;;;3.70;2.70;;;;;;;10.09;83.77;101712.84;107775;1279;70263;-87
2022/06/17 03:24:11;;;;;;;9.40;2.70;;;;;;;10.12;83.61;101721.73;107696;1279;72181;-87
2022/06/17 03:26:49;;;;;;;4.30;2.70;;;;;;;10.14;83.62;101724.40;107733;1280;60658;-87
2022/06/17 03:29:20;;;;;;;4.40;3.20;;;;;;;10.15;83.28;101726.88;107753;1279;61700;-91
2022/06/17 03:31:54;;;;;;;4.10;2.60;;;;;;;10.18;83.45;101721.88;107876;1279;74935;-87
2022/06/17 03:34:27;;;;;;;5.20;2.70;;;;;;;10.21;83.41;101717.50;108017;1281;69961;-87
2022/06/17 03:37:01;;;;;;;5.30;3.40;;;;;;;10.25;83.41;101714.02;107884;1279;72833;-87
2022/06/17 03:39:40;;;;;;;5.40;2.80;;;;;;;10.30;83.19;101715.83;108086;1279;62025;-87
2022/06/17 03:42:07;;;;;;;4.20;2.90;;;;;;;10.35;83.21;101711.82;108108;1279;61298;-87
2022/06/17 03:44:39;;;;;;;4.20;2.90;;;;;;;10.43;83.41;101712.11;108067;1279;75031;-87
2022/06/17 03:47:18;;;;;;;5.50;3.30;;;;;;;10.50;83.43;101711.42;108164;1280;71540;-87
2022/06/17 03:50:03;;;;;;;6.70;3.30;;;;;;;10.59;82.90;101715.61;108126;1281;72870;-87
2022/06/17 03:52:40;;;;;;;4.80;3.30;;;;;;;10.69;83.03;101715.04;107666;1279;61991;-88
2022/06/17 03:55:13;;;;;;;6.60;3.20;;;;;;;10.79;83.16;101714.57;107621;1281;61748;-87
2022/06/17 03:57:43;;;;;;;4.60;3.00;;;;;;;10.90;82.91;101719.52;107680;1280;73876;-88
2022/06/17 04:00:18;;;;;;;4.60;3.10;;;;;;;11.01;82.70;101723.51;107502;1280;71474;-88
2022/06/17 04:02:46;;;;;;;5.00;3.00;;;;;;;11.13;82.39;101725.05;107378;1280;73076;-87
2022/06/17 04:05:16;;;;;;;4.80;3.50;;;;;;;11.24;82.06;101726.71;107732;1279;63350;-87
2022/06/17 04:07:43;;;;;;;6.50;3.30;;;;;;;11.36;81.96;101725.39;107790;1279;60640;-87
2022/06/17 04:10:15;;;;;;;3.50;2.20;;;;;;;11.48;81.55;101729.52;107612;1281;77706;-87
2022/06/17 04:12:49;;;;;;;4.60;3.20;;;;;;;11.58;81.31;101731.14;107527;1279;71368;-86
2022/06/17 04:15:31;;;;;;;9.00;2.80;;;;;;;11.68;80.98;101728.71;107793;1279;73856;-87
2022/06/17 04:17:58;;;;;;;6.10;2.90;;;;;;;11.79;80.57;101733.37;107660;1279;63285;-87
2022/06/17 04:20:34;;;;;;;5.30;3.20;;;;;;;11.90;80.22;101727.76;107554;1281;60937;-87
2022/06/17 04:23:11;;;;;;;4.90;2.60;;;;;;;11.99;79.92;101730.27;107856;1279;75706;-87
2022/06/17 04:25:42;;;;;;;6.50;3.20;;;;;;;12.10;79.59;101729.91;107631;1281;72631;-87
2022/06/17 04:28:14;;;;;;;4.60;3.40;;;;;;;12.21;79.09;101734.84;108028;1279;72772;-87
2022/06/17 04:30:45;;;;;;;5.30;3.60;;;;;;;12.31;78.59;101729.48;107895;1279;62279;-87
2022/06/17 04:33:22;;;;;;;6.40;2.60;;;;;;;12.42;78.15;101728.52;107926;1280;60771;-87
2022/06/17 04:36:09;;;;;;;4.00;3.10;;;;;;;12.53;77.79;101721.51;107967;1279;75239;-87
2022/06/17 04:38:57;;;;;;;4.30;2.40;;;;;;;12.65;77.70;101714.91;107836;1279;71620;-87
2022/06/17 04:41:31;;;;;;;5.30;3.00;;;;;;;12.73;77.15;101713.92;108139;1280;70671;-86
2022/06/17 04:44:01;;;;;;;5.50;3.40;;;;;;;12.77;76.83;101714.52;107792;1279;62221;-86
2022/06/17 04:46:44;;;;;;;3.70;2.70;;;;;;;12.80;76.69;101713.27;107677;1281;61962;-86
2022/06/17 04:49:25;;;;;;;5.20;2.70;;;;;;;12.84;76.72;101710.38;107925;1279;76240;-87
2022/06/17 04:52:11;;;;;;;4.90;2.30;;;;;;;12.91;76.68;101701.70;107992;1279;71421;-87
2022/06/17 04:54:40;;;;;;;4.60;2.40;;;;;;;12.99;76.95;101706.43;108109;1279;72916;-87
2022/06/17 04:57:09;;;;;;;4.70;2.40;;;;;;;13.08;76.66;101708.36;107962;1281;62417;-87
2022/06/17 04:59:44;;;;;;;5.50;3.30;;;;;;;13.17;76.57;101712.15;108043;1278;60511;-86
2022/06/17 05:02:17;;;;;;;5.70;2.80;;;;;;;13.27;76.45;101718.70;107959;1279;75099;-86
2022/06/17 05:04:46;;;;;;;5.60;3.40;;;;;;;13.38;76.66;101720.88;107648;1279;71400;-86
2022/06/17 05:07:15;;;;;;;3.80;2.40;;;;;;;13.50;76.24;101719.98;107502;1279;73293;-86
2022/06/17 05:09:50;;;;;;;8.20;3.00;;;;;;;13.63;75.89;101722.92;107800;1279;62321;-86
2022/06/17 05:12:35;;;;;;;;;;;;;;;13.80;75.49;101721.95;108086;1279;60755;-87
2022/06/17 05:15:06;;;;;;;;;;;;;;;13.95;75.26;101725.19;107873;1279;75012;-85
2022/06/17 05:17:33;;;;;;;;;;;;;;;14.04;74.80;101732.08;107733;1281;71358;-86
2022/06/17 05:20:00;;;;;;;;;;;;;;;14.14;74.67;101734.75;107614;1279;72652;-86
2022/06/17 05:22:53;;;;;;;;;;;;;;;14.22;74.48;101732.42;107832;1279;62232;-87
2022/06/17 05:25:21;;;;;;;;;;;;;;;14.32;74.19;101730.57;107818;1279;59445;-87
2022/06/17 05:27:49;;;;;;;;;;;;;;;14.42;73.87;101728.71;107789;1279;76016;-87
2022/06/17 05:30:16;;;;;;;;;;;;;;;14.51;73.20;101727.09;107750;1279;71349;-88
2022/06/17 05:32:53;;;;;;;;;;;;;;;14.58;72.70;101736.15;107615;1280;74636;-88
2022/06/17 05:35:20;;;;;;;;;;;;;;;14.67;72.72;101734.98;107744;1279;61919;-88
2022/06/17 05:37:47;;;;;;;;;;;;;;;14.77;72.26;101735.77;107762;1279;59430;-86
2022/06/17 05:40:15;;;;;;;;;;;;;;;14.86;71.71;101738.83;107745;1279;75921;-86
2022/06/17 05:42:43;;;;;;;;;;;;;;;14.95;71.48;101745.67;107795;1280;73465;-87
2022/06/17 05:45:19;;;;;;;;;;;;;;;15.03;71.39;101747.85;108086;1279;73166;-86
2022/06/17 05:47:46;;;;;;;;;;;;;;;15.13;71.05;101743.54;108287;1280;61811;-86
2022/06/17 05:50:13;;;;;;;;;;;;;;;15.22;70.55;101750.52;107696;1279;63260;-86
2022/06/17 05:52:57;;;;;;;;;;;;;;;15.38;70.46;101742.96;107598;1281;76194;-87
2022/06/17 05:55:25;;;;;;;;;;;;;;;15.51;69.70;101744.58;107702;1279;71628;-87
2022/06/17 05:57:51;;;;;;;;;;;;;;;15.64;69.41;101746.41;107779;1281;72986;-87
2022/06/17 06:00:19;;;;;;;;;;;;;;;15.78;68.78;101746.24;107566;1281;61510;-87
2022/06/17 06:02:46;;;;;;;;;;;;;;;15.89;68.02;101742.04;107512;1279;59797;-87
2022/06/17 06:05:15;;;;;;;;;;;;;;;16.03;68.00;101740.95;107344;1281;74626;-87
2022/06/17 06:07:42;;;;;;;;;;;;;;;16.16;66.90;101744.86;107766;1280;71178;-87
2022/06/17 06:10:10;;;;;;;;;;;;;;;16.32;66.65;101741.83;107776;1279;72386;-87
2022/06/17 06:15:23;;;;;;;;;;;;;;;16.64;65.07;101742.37;107746;1279;60151;-87
2022/06/17 06:17:50;;;;;;;;;;;;;;;16.82;64.51;101741.73;107931;1280;76042;-87
2022/06/17 06:20:17;;;;;;;;;;;;;;;16.95;63.64;101742.00;107758;1280;71521;-87
2022/06/17 06:22:45;;;;;;;;;;;;;;;17.07;62.77;101742.61;107545;1281;72842;-87
2022/06/17 06:25:12;;;;;;;;;;;;;;;17.23;62.30;101744.73;107664;1279;62280;-85
2022/06/17 06:27:39;;;;;;;;;;;;;;;17.35;60.44;101743.59;107052;1280;60301;-85
2022/06/17 06:30:07;;;;;;;;;;;;;;;17.46;60.23;101747.60;107172;1279;74907;-85
2022/06/17 06:32:33;;;;;;;;;;;;;;;17.56;59.50;101749.23;107750;1279;71186;-85
2022/06/17 06:35:00;;;;;;;;;;;;;;;17.64;58.95;101748.48;107774;1279;73023;-85
2022/06/17 06:37:27;;;;;;;;;;;;;;;17.74;57.71;101750.31;107672;1279;61386;-85
2022/06/17 06:39:54;;;;;;;;;;;;;;;17.83;56.93;101752.70;107359;1281;60336;-86
2022/06/17 06:42:21;;;;;;;;;;;;;;;17.93;57.19;101756.53;107435;1281;75919;-86
2022/06/17 06:44:49;;;;;;;;;;;;;;;18.07;56.84;101755.15;107545;1279;71451;-85
2022/06/17 06:47:15;;;;;;;;;;;;;;;18.20;54.80;101756.55;107588;1280;73628;-85
2022/06/17 06:49:43;;;;;;;;;;;;;;;18.29;53.77;101755.46;107047;1282;62280;-84
2022/06/17 06:52:10;;;;;;;;;;;;;;;18.42;53.87;101760.43;107472;1280;61433;-85
2022/06/17 06:54:38;;;;;;;;;;;;;;;18.53;52.01;101755.89;107794;1279;76520;-85
2022/06/17 06:57:05;;;;;;;;;;;;;;;18.60;51.54;101749.70;107554;1281;71335;-85
2022/06/17 06:59:53;;;;;;;;;;;;;;;18.73;51.88;101746.98;107416;1279;75483;-86
2022/06/17 07:02:20;;;;;;;;;;;;;;;18.82;52.23;101746.40;107603;1279;61244;-86
2022/06/17 07:04:48;;;;;;;;;;;;;;;18.92;52.52;101748.95;107239;1282;60332;-87
2022/06/17 07:07:15;;;;;;;;;;;;;;;19.02;51.35;101751.31;107824;1279;75744;-86
2022/06/17 07:09:42;;;;;;;;;;;;;;;19.10;50.37;101755.16;107567;1279;71518;-86
2022/06/17 07:12:09;;;;;;;;;;;;;;;19.19;50.03;101756.21;107736;1281;73140;-85
2022/06/17 07:14:36;;;;;;;;;;;;;;;19.29;49.51;101753.61;107763;1279;61048;-85
2022/06/17 07:17:03;;;;;;;;;;;;;;;19.42;50.19;101756.70;107559;1279;58849;-85
2022/06/17 07:19:30;;;;;;;;;;;;;;;19.54;49.60;101757.06;107422;1279;75110;-85
2022/06/17 07:21:56;;;;;;;;;;;;;;;19.62;49.30;101748.05;107293;1281;73432;-86
2022/06/17 07:24:23;;;;;;;;;;;;;;;19.67;49.02;101750.86;107733;1279;74340;-86
2022/06/17 07:26:50;;;;;;;;;;;;;;;19.74;49.11;101748.29;107340;1281;61193;-87
2022/06/17 07:29:17;;;;;;;;;;;;;;;19.84;48.96;101754.27;107109;1279;61644;-86
2022/06/17 07:31:44;;;;;;;;;;;;;;;19.93;48.61;101750.95;107453;1279;75405;-86
2022/06/17 07:34:10;;;;;;;;;;;;;;;20.05;48.71;101747.52;107599;1281;72562;-86
2022/06/17 07:42:08;;;;;;;;;;;;;;;20.32;45.09;101752.93;107378;1281;61373;-86
2022/06/17 07:44:37;;;;;;;;;;;;;;;20.36;44.86;101755.55;107318;1279;74462;-87
2022/06/17 07:47:04;;;;;;;;;;;;;;;20.39;45.02;101764.16;107590;1279;72256;-87
2022/06/17 07:49:32;;;;;;;;;;;;;;;20.39;44.50;101754.05;107518;1281;71410;-86
2022/06/17 07:52:08;;;;;;;;;;;;;;;20.43;44.93;101746.66;107356;1281;60266;-86
2022/06/17 07:54:35;;;;;;;;;;;;;;;20.52;44.31;101738.23;107796;1279;60374;-86
2022/06/17 07:57:02;;;;;;;;;;;;;;;20.62;43.73;101729.83;107743;1279;74612;-86
2022/06/17 07:59:29;;;;;;;;;;;;;;;20.72;43.80;101723.00;107665;1280;72412;-86
2022/06/17 08:01:56;;;;;;;;;;;;;;;20.81;44.55;101722.66;107638;1279;74031;-86
2022/06/17 08:04:23;;;;;;;;;;;;;;;20.93;44.10;101712.31;108311;1279;61057;-86
2022/06/17 08:06:50;;;;;;;;;;;;;;;21.07;43.01;101719.80;107792;1281;61263;-86
2022/06/17 08:09:17;;;;;;;;;;;;;;;21.10;42.25;101720.54;107495;1280;75049;-87
2022/06/17 08:11:45;;;;;;;;;;;;;;;21.16;42.44;101717.81;107756;1279;70006;-86
2022/06/17 08:14:12;;;;;;;;;;;;;;;21.25;42.59;101715.30;107528;1281;73435;-87
2022/06/17 08:16:39;;;;;;;;;;;;;;;21.34;42.76;101708.62;107670;1279;61416;-87
2022/06/17 08:19:07;;;;;;;;;;;;;;;21.42;41.76;101703.38;107768;1279;61205;-86
2022/06/17 08:21:34;;;;;;;;;;;;;;;21.47;41.42;101699.89;107378;1281;74957;-86
2022/06/17 08:24:21;;;;;;;;;;;;;;;21.54;41.57;101703.72;107669;1279;72914;-89
2022/06/17 08:26:48;;;;;;;;;;;;;;;21.62;41.16;101707.54;107644;1279;74985;-86
2022/06/17 08:29:15;;;;;;;;;;;;;;;21.69;41.71;101711.05;107822;1279;60673;-86
2022/06/17 08:34:48;;;;;;;;;;;;;;;22.02;41.38;101716.41;107441;1281;75181;-85
2022/06/17 08:37:15;;;;;;;;;;;;;;;22.14;41.16;101713.13;107639;1280;72665;-86
2022/06/17 08:39:44;;;;;;;;;;;;;;;22.25;40.93;101715.92;107088;1281;73060;-86
2022/06/17 08:42:29;;;;;;;;;;;;;;;22.41;40.85;101710.59;107659;1281;60568;-87
2022/06/17 08:45:16;;;;;;;;;;;;;;;22.60;40.86;101703.89;107520;1279;59081;-87
2022/06/17 08:47:49;;;;;;;;;;;;;;;22.67;39.86;101708.07;106686;1279;773467;-86
2022/06/17 08:50:28;;;;;;;;;;;;;;;22.75;40.38;101705.54;107767;1281;72398;-86
2022/06/17 08:53:04;;;;;;;;;;;;;;;22.91;39.75;101701.97;107736;1279;74282;-87
2022/06/17 08:55:46;;;;;;;;;;;;;;;23.06;40.20;101704.54;107354;1281;62138;-87
2022/06/17 08:58:22;;;;;;;;;;;;;;;23.17;39.73;101708.64;107468;1279;60223;-87
2022/06/17 09:01:07;;;;;;;;;;;;;;;23.31;39.07;101707.52;107677;1280;75801;-87
2022/06/17 09:03:49;;;;;;;;;;;;;;;23.31;39.01;101708.27;107776;1279;71867;-87
2022/06/17 09:06:32;;;;;;;;;;;;;;;23.41;39.04;101704.60;107468;1280;74578;-87
2022/06/17 09:09:11;;;;;;;;;;;;;;;23.43;38.49;101694.52;107747;1281;60348;-87
2022/06/17 09:11:41;;;;;;;;;;;;;;;23.44;38.18;101681.01;107466;1281;60378;-87
2022/06/17 09:14:32;;;;;;;;;;;;;;;23.53;38.72;101674.16;107801;1279;76151;-87
2022/06/17 09:16:59;;;;;;;;;;;;;;;23.66;38.23;101664.84;107450;1279;71456;-88
2022/06/17 09:19:30;;;;;;;;;;;;;;;23.82;39.12;101650.58;107242;1280;74215;-87
2022/06/17 09:22:16;;;;;;;;;;;;;;;24.01;38.01;101656.98;107482;1281;60685;-85
2022/06/17 09:24:44;;;;;;;;;;;;;;;24.06;36.88;101664.05;107327;1280;59263;-86
2022/06/17 09:27:15;;;;;;;;;;;;;;;24.09;37.05;101664.77;107670;1280;74962;-88
2022/06/17 09:29:45;;;;;;;;;;;;;;;24.08;35.96;101665.23;107378;1281;72568;-87
2022/06/17 09:32:17;;;;;;;;;;;;;;;24.01;36.33;101661.64;107853;1281;73126;-87
2022/06/17 09:35:04;;;;;;;;;;;;;;;24.04;36.31;101660.44;107466;1280;61137;-87
2022/06/17 09:37:41;;;;;;;;;;;;;;;24.01;35.79;101669.70;107664;1281;60360;-87
2022/06/17 09:40:23;;;;;;;;;;;;;;;23.99;35.75;101675.52;107689;1280;74865;-87
2022/06/17 09:43:12;;;;;;;;;;;;;;;24.12;35.27;101674.67;106883;1281;72652;-87
2022/06/17 09:45:54;;;;;;;;;;;;;;;24.39;34.86;101678.02;107575;1279;72966;-88
2022/06/17 09:48:21;;;;;;;;;;;;;;;24.67;35.50;101668.77;107655;1280;60658;-88
2022/06/17 09:50:54;;;;;;;;;;;;;;;24.88;34.86;101668.89;108049;1279;60170;-88
2022/06/17 09:53:32;;;;;;;;;;;;;;;25.11;34.49;101672.72;107778;1280;76031;-88
2022/06/17 09:56:21;;;;;;;;;;;;;;;25.30;34.97;101677.41;107597;1280;71562;-87
2022/06/17 09:59:15;;;;;;;;;;;;;;;25.36;34.53;101674.67;107854;1281;73053;-88
2022/06/17 10:01:43;;;;;;;;;;;;;;;25.56;34.24;101675.48;107398;1281;60126;-88
2022/06/17 10:04:12;;;;;;;5.10;1.50;;;;;;;25.65;33.54;101675.23;107378;1281;60833;-88
2022/06/17 10:07:03;;;;;;;2.80;1.50;;;;;;;25.60;33.18;101672.95;107774;1279;75895;-87
2022/06/17 10:09:46;;;;;;;3.50;1.60;;;;;;;25.62;32.59;101674.61;107700;1281;70119;-87
2022/06/17 10:12:50;;;;;;;3.30;1.30;;;;;;;25.86;33.00;101676.64;107547;1281;71562;-88
2022/06/17 10:18:31;;;;;;;2.90;1.40;;;;;;;26.16;32.19;101680.98;107546;1281;61510;-87
2022/06/17 10:18:43;;;;;;;3.10;1.30;;;;;;;26.59;31.97;101682.98;107278;1281;60333;-87
2022/06/17 10:21:47;;;;;;;4.70;1.70;;;;;;;26.88;31.37;101684.00;107544;1280;75485;-87
2022/06/17 10:24:20;;;;;;;3.80;1.50;;;;;;;27.22;30.52;101682.74;107524;1281;72571;-87
2022/06/17 10:27:05;;;;;;;2.30;1.20;;;;;;;27.32;30.02;101675.55;107521;1282;73486;-88
2022/06/17 10:30:08;;;;;;;4.50;1.60;;;;;;;27.39;30.24;101680.34;107203;1282;62088;-89
2022/06/17 10:32:37;;;;;;;3.40;1.30;;;;;;;27.44;30.45;101672.25;107054;1282;62106;-87
2022/06/17 10:35:12;;;;;;;4.10;1.50;;;;;;;27.54;30.33;101667.61;107480;1280;74306;-88
2022/06/17 10:37:40;;;;;;;7.00;1.60;;;;;;;27.78;30.18;101670.92;107606;1280;71250;-88
2022/06/17 10:40:25;;;;;;;4.00;1.30;;;;;;;27.93;31.49;101669.37;107227;1280;74209;-87
2022/06/17 10:42:57;;;;;;;2.70;1.20;;;;;;;28.10;30.89;101661.73;107536;1281;60468;-89
2022/06/17 10:45:24;;;;;;;3.00;1.40;;;;;;;28.18;30.21;101669.50;107475;1281;59353;-87
2022/06/17 10:48:29;;;;;;;3.20;1.70;;;;;;;27.98;30.17;101669.55;107421;1281;76160;-87
2022/06/17 10:50:57;;;;;;;4.50;1.90;;;;;;;27.79;30.12;101667.01;107424;1279;73425;-87
2022/06/17 10:53:35;;;;;;;5.40;1.50;;;;;;;27.80;30.65;101670.08;107399;1280;73077;-87
2022/06/17 10:56:11;;;;;;;6.20;1.40;;;;;;;27.87;30.22;101666.63;107589;1280;62021;-87
2022/06/17 10:58:53;;;;;;;3.70;1.30;;;;;;;27.94;30.02;101662.78;107564;1281;60290;-88
2022/06/17 11:01:20;;;;;;;4.50;1.70;;;;;;;27.93;30.25;101660.33;107585;1281;76551;-88
2022/06/17 11:03:48;;;;;;;5.00;1.40;;;;;;;27.83;30.61;101660.16;107222;1281;71247;-87
2022/06/17 11:06:19;;;;;;;4.50;1.60;;;;;;;27.75;30.64;101658.55;107591;1281;72830;-88
2022/06/17 11:08:54;;;;;;;3.40;1.10;;;;;;;27.51;30.44;101654.35;107750;1279;61253;-87
2022/06/17 11:14:48;;;;;;;3.20;1.70;;;;;;;27.45;31.67;101649.59;107537;1280;75232;-87
2022/06/17 11:17:34;;;;;;;3.80;1.40;;;;;;;27.72;30.81;101642.27;107552;1281;72619;-88
2022/06/17 11:20:18;;;;;;;3.90;1.60;;;;;;;28.02;30.10;101640.16;107298;1280;74027;-87
2022/06/17 11:23:16;;;;;;;3.00;1.30;;;;;;;28.18;29.77;101640.36;107334;1280;61927;-87
2022/06/17 11:25:43;;;;;;;3.00;1.40;;;;;;;28.34;30.00;101632.25;107554;1280;59456;-87
2022/06/17 11:28:32;;;;;;;2.50;1.30;;;;;;;28.57;29.55;101632.23;107226;1281;75049;-87
2022/06/17 11:31:02;;;;;;;3.50;1.50;;;;;;;28.63;29.31;101628.40;107439;1281;73133;-87
2022/06/17 11:33:32;;;;;;;3.50;1.40;;;;;;;28.77;29.50;101613.86;107494;1280;73608;-87
2022/06/17 11:36:18;;;;;;;3.20;1.40;;;;;;;28.96;29.53;101617.27;107434;1281;60652;-87
2022/06/17 11:38:45;;;;;;;2.90;1.30;;;;;;;29.02;28.71;101621.68;107257;1281;60359;-87
2022/06/17 11:41:28;;;;;;;5.40;1.50;;;;;;;28.92;28.50;101617.50;107574;1280;77145;-87
2022/06/17 11:44:07;;;;;;;6.20;1.30;;;;;;;28.77;29.54;101612.81;107552;1281;70718;-87
2022/06/17 11:46:35;;;;;;;4.90;1.40;;;;;;;28.66;30.27;101614.59;107420;1281;72053;-87
2022/06/17 11:49:15;;;;;;;1.50;0.90;;;;;;;28.48;30.18;101609.10;107257;1281;61160;-87
2022/06/17 11:51:49;;;;;;;3.40;1.70;;;;;;;28.42;30.65;101604.63;107829;1281;61906;-88
2022/06/17 11:54:21;;;;;;;4.30;1.40;;;;;;;28.38;29.97;101601.52;107580;1281;76179;-87
2022/06/17 11:56:48;;;;;;;3.00;1.20;;;;;;;28.21;28.84;101597.03;107708;1280;71362;-87
2022/06/17 11:59:29;;;;;;;2.60;1.10;;;;;;;28.10;28.79;101595.83;107692;1280;73588;-88
2022/06/17 12:01:55;;;;;;;2.00;1.00;;;;;;;28.03;30.71;101600.17;107714;1280;61346;-87
2022/06/17 12:04:42;;;;;;;4.00;1.30;;;;;;;28.04;30.55;101597.23;107556;1280;60345;-88
2022/06/17 12:07:18;;;;;;;2.80;1.50;;;;;;;28.18;30.52;101591.36;107109;1280;75564;-87
2022/06/17 12:09:49;;;;;;;4.70;1.20;;;;;;;28.15;29.12;101598.89;107867;1279;72734;-87
2022/06/17 12:12:18;;;;;;;5.70;1.30;;;;;;;28.17;29.11;101597.25;107369;1281;72705;-87
2022/06/17 12:14:56;;;;;;;2.50;1.30;;;;;;;28.18;29.38;101597.80;107679;1280;59774;-87
2022/06/17 12:17:23;;;;;;;2.30;1.20;;;;;;;28.29;29.24;101598.08;107125;1282;61148;-88
2022/06/17 12:19:52;;;;;;;4.90;1.20;;;;;;;28.29;29.11;101598.84;107495;1279;75948;-88
2022/06/17 12:22:31;;;;;;;3.10;1.00;;;;;;;28.39;29.06;101595.46;107448;1281;71349;-87
2022/06/17 12:25:29;;;;;;;4.50;1.10;;;;;;;28.61;28.54;101591.77;107411;1279;72965;-88
2022/06/17 12:28:17;;;;;;;3.20;1.10;;;;;;;28.65;28.03;101589.41;107667;1280;60807;-88
2022/06/17 12:30:59;;;;;;;3.40;1.30;;;;;;;28.76;27.92;101584.10;107665;1279;60407;-89